sensor_id;sensor_type;location;lat;lon;timestamp;P1;durP1;ratioP1;P2;durP2;ratioP2
19537;SDS011;9914;51.008;4.300;2022-07-23T00:00:15;15.03;;;12.33;;
19537;SDS011;9914;51.008;4.300;2022-07-23T00:02:42;16.03;;;12.47;;
19537;SDS011;9914;51.008;4.300;2022-07-23T00:05:07;19.03;;;12.73;;
19537;SDS011;9914;51.008;4.300;2022-07-23T00:07:34;13.50;;;12.17;;
19537;SDS011;9914;51.008;4.300;2022-07-23T00:10:00;13.53;;;12.23;;
19537;SDS011;9914;51.008;4.300;2022-07-23T00:12:25;13.47;;;11.17;;
19537;SDS011;9914;51.008;4.300;2022-07-23T00:14:51;14.40;;;11.67;;
19537;SDS011;9914;51.008;4.300;2022-07-23T00:17:17;14.47;;;11.13;;
19537;SDS011;9914;51.008;4.300;2022-07-23T00:19:42;12.53;;;11.13;;
19537;SDS011;9914;51.008;4.300;2022-07-23T00:22:08;13.37;;;11.93;;
19537;SDS011;9914;51.008;4.300;2022-07-23T00:24:34;12.90;;;11.50;;
19537;SDS011;9914;51.008;4.300;2022-07-23T00:26:59;12.60;;;11.50;;
19537;SDS011;9914;51.008;4.300;2022-07-23T00:29:25;13.23;;;11.90;;
19537;SDS011;9914;51.008;4.300;2022-07-23T00:31:51;12.90;;;11.60;;
19537;SDS011;9914;51.008;4.300;2022-07-23T00:34:16;15.17;;;11.77;;
19537;SDS011;9914;51.008;4.300;2022-07-23T00:36:42;14.47;;;11.97;;
19537;SDS011;9914;51.008;4.300;2022-07-23T00:39:08;15.50;;;11.33;;
19537;SDS011;9914;51.008;4.300;2022-07-23T00:41:33;14.20;;;11.60;;
19537;SDS011;9914;51.008;4.300;2022-07-23T00:44:15;15.53;;;12.77;;
19537;SDS011;9914;51.008;4.300;2022-07-23T00:46:45;14.87;;;12.70;;
19537;SDS011;9914;51.008;4.300;2022-07-23T00:49:12;14.83;;;12.30;;
19537;SDS011;9914;51.008;4.300;2022-07-23T00:51:38;14.37;;;12.43;;
19537;SDS011;9914;51.008;4.300;2022-07-23T00:54:04;13.73;;;12.33;;
19537;SDS011;9914;51.008;4.300;2022-07-23T00:56:29;15.97;;;12.67;;
19537;SDS011;9914;51.008;4.300;2022-07-23T00:58:56;14.33;;;11.93;;
19537;SDS011;9914;51.008;4.300;2022-07-23T01:01:22;20.50;;;13.13;;
19537;SDS011;9914;51.008;4.300;2022-07-23T01:03:48;13.83;;;12.43;;
19537;SDS011;9914;51.008;4.300;2022-07-23T01:06:14;12.77;;;11.47;;
19537;SDS011;9914;51.008;4.300;2022-07-23T01:08:39;14.07;;;11.80;;
19537;SDS011;9914;51.008;4.300;2022-07-23T01:11:06;13.03;;;11.70;;
19537;SDS011;9914;51.008;4.300;2022-07-23T01:13:32;15.23;;;12.10;;
19537;SDS011;9914;51.008;4.300;2022-07-23T01:15:57;14.07;;;11.17;;
19537;SDS011;9914;51.008;4.300;2022-07-23T01:18:23;13.67;;;11.60;;
19537;SDS011;9914;51.008;4.300;2022-07-23T01:20:48;13.70;;;11.47;;
19537;SDS011;9914;51.008;4.300;2022-07-23T01:23:14;12.77;;;10.77;;
19537;SDS011;9914;51.008;4.300;2022-07-23T01:25:52;14.93;;;10.53;;
19537;SDS011;9914;51.008;4.300;2022-07-23T01:28:18;11.63;;;10.47;;
19537;SDS011;9914;51.008;4.300;2022-07-23T01:30:44;13.13;;;11.20;;
19537;SDS011;9914;51.008;4.300;2022-07-23T01:33:10;10.83;;;9.63;;
19537;SDS011;9914;51.008;4.300;2022-07-23T01:35:36;14.60;;;10.43;;
19537;SDS011;9914;51.008;4.300;2022-07-23T01:38:01;15.93;;;10.20;;
19537;SDS011;9914;51.008;4.300;2022-07-23T01:40:27;12.70;;;10.67;;
19537;SDS011;9914;51.008;4.300;2022-07-23T01:42:53;18.27;;;11.63;;
19537;SDS011;9914;51.008;4.300;2022-07-23T01:45:18;12.10;;;10.77;;
19537;SDS011;9914;51.008;4.300;2022-07-23T01:47:44;11.80;;;10.60;;
19537;SDS011;9914;51.008;4.300;2022-07-23T01:50:10;15.30;;;11.77;;
19537;SDS011;9914;51.008;4.300;2022-07-23T01:52:35;15.57;;;11.13;;
19537;SDS011;9914;51.008;4.300;2022-07-23T01:55:01;14.47;;;10.47;;
19537;SDS011;9914;51.008;4.300;2022-07-23T01:57:27;16.63;;;11.07;;
19537;SDS011;9914;51.008;4.300;2022-07-23T01:59:52;15.93;;;12.17;;
19537;SDS011;9914;51.008;4.300;2022-07-23T02:02:18;14.63;;;12.40;;
19537;SDS011;9914;51.008;4.300;2022-07-23T02:04:43;16.17;;;12.40;;
19537;SDS011;9914;51.008;4.300;2022-07-23T02:07:09;16.33;;;12.73;;
19537;SDS011;9914;51.008;4.300;2022-07-23T02:09:35;15.40;;;12.27;;
19537;SDS011;9914;51.008;4.300;2022-07-23T02:12:00;17.90;;;13.40;;
19537;SDS011;9914;51.008;4.300;2022-07-23T02:14:26;18.20;;;12.23;;
19537;SDS011;9914;51.008;4.300;2022-07-23T02:16:52;14.80;;;12.70;;
19537;SDS011;9914;51.008;4.300;2022-07-23T02:19:18;14.67;;;13.00;;
19537;SDS011;9914;51.008;4.300;2022-07-23T02:21:43;15.33;;;12.80;;
19537;SDS011;9914;51.008;4.300;2022-07-23T02:24:09;16.80;;;12.70;;
19537;SDS011;9914;51.008;4.300;2022-07-23T02:26:35;15.23;;;12.60;;
19537;SDS011;9914;51.008;4.300;2022-07-23T02:29:01;14.97;;;12.13;;
19537;SDS011;9914;51.008;4.300;2022-07-23T02:31:28;14.27;;;12.70;;
19537;SDS011;9914;51.008;4.300;2022-07-23T02:33:54;17.37;;;12.07;;
19537;SDS011;9914;51.008;4.300;2022-07-23T02:36:20;14.07;;;12.40;;
19537;SDS011;9914;51.008;4.300;2022-07-23T02:38:46;15.57;;;13.10;;
19537;SDS011;9914;51.008;4.300;2022-07-23T02:41:12;20.00;;;13.87;;
19537;SDS011;9914;51.008;4.300;2022-07-23T02:43:37;16.90;;;13.50;;
19537;SDS011;9914;51.008;4.300;2022-07-23T02:46:03;16.77;;;12.13;;
19537;SDS011;9914;51.008;4.300;2022-07-23T02:48:29;14.37;;;12.87;;
19537;SDS011;9914;51.008;4.300;2022-07-23T02:50:55;16.97;;;12.77;;
19537;SDS011;9914;51.008;4.300;2022-07-23T02:53:21;16.43;;;13.30;;
19537;SDS011;9914;51.008;4.300;2022-07-23T02:55:47;18.97;;;14.00;;
19537;SDS011;9914;51.008;4.300;2022-07-23T02:58:13;16.97;;;12.70;;
19537;SDS011;9914;51.008;4.300;2022-07-23T03:00:39;20.20;;;13.60;;
19537;SDS011;9914;51.008;4.300;2022-07-23T03:03:05;15.40;;;12.43;;
19537;SDS011;9914;51.008;4.300;2022-07-23T03:05:31;15.27;;;12.97;;
19537;SDS011;9914;51.008;4.300;2022-07-23T03:07:57;16.87;;;12.67;;
19537;SDS011;9914;51.008;4.300;2022-07-23T03:10:23;18.60;;;13.40;;
19537;SDS011;9914;51.008;4.300;2022-07-23T03:12:48;20.50;;;14.07;;
19537;SDS011;9914;51.008;4.300;2022-07-23T03:15:14;17.90;;;13.97;;
19537;SDS011;9914;51.008;4.300;2022-07-23T03:17:39;15.30;;;12.20;;
19537;SDS011;9914;51.008;4.300;2022-07-23T03:20:05;16.10;;;13.70;;
19537;SDS011;9914;51.008;4.300;2022-07-23T03:22:32;13.77;;;11.90;;
19537;SDS011;9914;51.008;4.300;2022-07-23T03:24:57;15.20;;;12.53;;
19537;SDS011;9914;51.008;4.300;2022-07-23T03:27:24;14.67;;;11.97;;
19537;SDS011;9914;51.008;4.300;2022-07-23T03:29:51;14.33;;;12.13;;
19537;SDS011;9914;51.008;4.300;2022-07-23T03:32:19;16.07;;;12.07;;
19537;SDS011;9914;51.008;4.300;2022-07-23T03:34:45;15.13;;;12.20;;
19537;SDS011;9914;51.008;4.300;2022-07-23T03:37:11;15.57;;;11.53;;
19537;SDS011;9914;51.008;4.300;2022-07-23T03:39:36;17.70;;;11.93;;
19537;SDS011;9914;51.008;4.300;2022-07-23T03:42:02;20.27;;;13.40;;
19537;SDS011;9914;51.008;4.300;2022-07-23T03:44:28;19.23;;;13.67;;
19537;SDS011;9914;51.008;4.300;2022-07-23T03:46:53;17.13;;;13.83;;
19537;SDS011;9914;51.008;4.300;2022-07-23T03:49:19;16.20;;;11.57;;
19537;SDS011;9914;51.008;4.300;2022-07-23T03:51:45;13.27;;;11.23;;
19537;SDS011;9914;51.008;4.300;2022-07-23T03:54:10;20.13;;;10.87;;
19537;SDS011;9914;51.008;4.300;2022-07-23T03:56:36;12.17;;;10.87;;
19537;SDS011;9914;51.008;4.300;2022-07-23T03:59:02;12.53;;;10.73;;
19537;SDS011;9914;51.008;4.300;2022-07-23T04:01:27;12.43;;;11.17;;
19537;SDS011;9914;51.008;4.300;2022-07-23T04:03:53;12.90;;;11.60;;
19537;SDS011;9914;51.008;4.300;2022-07-23T04:06:19;13.63;;;11.17;;
19537;SDS011;9914;51.008;4.300;2022-07-23T04:08:44;15.30;;;12.03;;
19537;SDS011;9914;51.008;4.300;2022-07-23T04:11:10;13.23;;;11.77;;
19537;SDS011;9914;51.008;4.300;2022-07-23T04:13:35;13.03;;;11.63;;
19537;SDS011;9914;51.008;4.300;2022-07-23T04:16:01;15.33;;;12.23;;
19537;SDS011;9914;51.008;4.300;2022-07-23T04:18:27;13.00;;;10.87;;
19537;SDS011;9914;51.008;4.300;2022-07-23T04:20:53;14.77;;;11.47;;
19537;SDS011;9914;51.008;4.300;2022-07-23T04:23:18;11.90;;;10.77;;
19537;SDS011;9914;51.008;4.300;2022-07-23T04:25:44;11.87;;;10.60;;
19537;SDS011;9914;51.008;4.300;2022-07-23T04:28:10;12.50;;;10.30;;
19537;SDS011;9914;51.008;4.300;2022-07-23T04:30:35;16.13;;;11.03;;
19537;SDS011;9914;51.008;4.300;2022-07-23T04:33:01;13.13;;;10.33;;
19537;SDS011;9914;51.008;4.300;2022-07-23T04:35:30;14.60;;;11.23;;
19537;SDS011;9914;51.008;4.300;2022-07-23T04:37:56;12.93;;;10.83;;
19537;SDS011;9914;51.008;4.300;2022-07-23T04:40:22;10.90;;;9.80;;
19537;SDS011;9914;51.008;4.300;2022-07-23T04:42:47;16.13;;;10.77;;
19537;SDS011;9914;51.008;4.300;2022-07-23T04:45:13;12.33;;;10.93;;
19537;SDS011;9914;51.008;4.300;2022-07-23T04:47:38;11.83;;;10.63;;
19537;SDS011;9914;51.008;4.300;2022-07-23T04:50:04;14.00;;;10.40;;
19537;SDS011;9914;51.008;4.300;2022-07-23T04:52:30;11.37;;;10.17;;
19537;SDS011;9914;51.008;4.300;2022-07-23T04:54:55;13.07;;;10.70;;
19537;SDS011;9914;51.008;4.300;2022-07-23T04:57:21;13.53;;;10.27;;
19537;SDS011;9914;51.008;4.300;2022-07-23T04:59:46;12.43;;;10.47;;
19537;SDS011;9914;51.008;4.300;2022-07-23T05:02:12;16.10;;;12.00;;
19537;SDS011;9914;51.008;4.300;2022-07-23T05:04:38;17.20;;;12.03;;
19537;SDS011;9914;51.008;4.300;2022-07-23T05:07:03;16.37;;;12.17;;
19537;SDS011;9914;51.008;4.300;2022-07-23T05:09:29;12.87;;;11.07;;
19537;SDS011;9914;51.008;4.300;2022-07-23T05:11:55;13.13;;;11.37;;
19537;SDS011;9914;51.008;4.300;2022-07-23T05:14:20;12.90;;;11.60;;
19537;SDS011;9914;51.008;4.300;2022-07-23T05:16:46;14.77;;;11.93;;
19537;SDS011;9914;51.008;4.300;2022-07-23T05:19:12;15.30;;;13.70;;
19537;SDS011;9914;51.008;4.300;2022-07-23T05:21:37;19.93;;;13.93;;
19537;SDS011;9914;51.008;4.300;2022-07-23T05:24:03;16.03;;;12.03;;
19537;SDS011;9914;51.008;4.300;2022-07-23T05:26:29;16.37;;;12.27;;
19537;SDS011;9914;51.008;4.300;2022-07-23T05:28:54;18.03;;;11.73;;
19537;SDS011;9914;51.008;4.300;2022-07-23T05:31:20;13.07;;;10.87;;
19537;SDS011;9914;51.008;4.300;2022-07-23T05:33:46;13.53;;;11.57;;
19537;SDS011;9914;51.008;4.300;2022-07-23T05:36:11;12.83;;;11.40;;
19537;SDS011;9914;51.008;4.300;2022-07-23T05:38:37;15.63;;;12.43;;
19537;SDS011;9914;51.008;4.300;2022-07-23T05:41:03;15.13;;;11.93;;
19537;SDS011;9914;51.008;4.300;2022-07-23T05:43:28;12.73;;;11.37;;
19537;SDS011;9914;51.008;4.300;2022-07-23T05:45:54;15.10;;;10.67;;
19537;SDS011;9914;51.008;4.300;2022-07-23T05:48:20;13.70;;;11.07;;
19537;SDS011;9914;51.008;4.300;2022-07-23T05:50:46;12.90;;;11.23;;
19537;SDS011;9914;51.008;4.300;2022-07-23T05:53:12;13.13;;;10.23;;
19537;SDS011;9914;51.008;4.300;2022-07-23T05:55:37;12.30;;;10.93;;
19537;SDS011;9914;51.008;4.300;2022-07-23T05:58:03;13.63;;;11.10;;
19537;SDS011;9914;51.008;4.300;2022-07-23T06:00:29;13.77;;;11.30;;
19537;SDS011;9914;51.008;4.300;2022-07-23T06:02:55;12.67;;;10.23;;
19537;SDS011;9914;51.008;4.300;2022-07-23T06:05:21;12.30;;;11.00;;
19537;SDS011;9914;51.008;4.300;2022-07-23T06:07:46;15.37;;;10.60;;
19537;SDS011;9914;51.008;4.300;2022-07-23T06:10:12;14.03;;;10.63;;
19537;SDS011;9914;51.008;4.300;2022-07-23T06:12:38;12.13;;;10.73;;
19537;SDS011;9914;51.008;4.300;2022-07-23T06:15:03;12.33;;;10.13;;
19537;SDS011;9914;51.008;4.300;2022-07-23T06:17:30;11.80;;;10.50;;
19537;SDS011;9914;51.008;4.300;2022-07-23T06:19:55;11.53;;;10.33;;
19537;SDS011;9914;51.008;4.300;2022-07-23T06:22:21;11.60;;;10.30;;
19537;SDS011;9914;51.008;4.300;2022-07-23T06:24:47;12.80;;;11.30;;
19537;SDS011;9914;51.008;4.300;2022-07-23T06:27:13;12.30;;;10.80;;
19537;SDS011;9914;51.008;4.300;2022-07-23T06:29:39;12.03;;;10.57;;
19537;SDS011;9914;51.008;4.300;2022-07-23T06:32:05;12.30;;;11.00;;
19537;SDS011;9914;51.008;4.300;2022-07-23T06:34:33;14.33;;;10.90;;
19537;SDS011;9914;51.008;4.300;2022-07-23T06:36:59;12.83;;;10.50;;
19537;SDS011;9914;51.008;4.300;2022-07-23T06:39:25;16.33;;;11.10;;
19537;SDS011;9914;51.008;4.300;2022-07-23T06:41:51;11.30;;;10.03;;
19537;SDS011;9914;51.008;4.300;2022-07-23T06:44:17;12.40;;;10.07;;
19537;SDS011;9914;51.008;4.300;2022-07-23T06:46:43;12.87;;;9.77;;
19537;SDS011;9914;51.008;4.300;2022-07-23T06:49:09;11.40;;;10.13;;
19537;SDS011;9914;51.008;4.300;2022-07-23T06:51:34;11.20;;;10.20;;
19537;SDS011;9914;51.008;4.300;2022-07-23T06:54:01;10.70;;;9.60;;
19537;SDS011;9914;51.008;4.300;2022-07-23T06:56:27;10.70;;;9.60;;
19537;SDS011;9914;51.008;4.300;2022-07-23T06:58:53;15.23;;;9.87;;
19537;SDS011;9914;51.008;4.300;2022-07-23T07:01:18;10.13;;;9.00;;
19537;SDS011;9914;51.008;4.300;2022-07-23T07:03:44;13.80;;;9.50;;
19537;SDS011;9914;51.008;4.300;2022-07-23T07:06:10;10.43;;;9.33;;
19537;SDS011;9914;51.008;4.300;2022-07-23T07:08:35;10.90;;;9.43;;
19537;SDS011;9914;51.008;4.300;2022-07-23T07:11:01;10.57;;;9.47;;
19537;SDS011;9914;51.008;4.300;2022-07-23T07:13:27;11.97;;;9.90;;
19537;SDS011;9914;51.008;4.300;2022-07-23T07:15:53;10.90;;;9.77;;
19537;SDS011;9914;51.008;4.300;2022-07-23T07:18:21;12.63;;;10.10;;
19537;SDS011;9914;51.008;4.300;2022-07-23T07:20:46;11.17;;;9.97;;
19537;SDS011;9914;51.008;4.300;2022-07-23T07:23:12;16.93;;;10.33;;
19537;SDS011;9914;51.008;4.300;2022-07-23T07:25:38;12.53;;;9.17;;
19537;SDS011;9914;51.008;4.300;2022-07-23T07:28:03;11.07;;;9.47;;
19537;SDS011;9914;51.008;4.300;2022-07-23T07:30:29;10.83;;;9.73;;
19537;SDS011;9914;51.008;4.300;2022-07-23T07:32:55;10.80;;;9.70;;
19537;SDS011;9914;51.008;4.300;2022-07-23T07:35:21;12.13;;;9.20;;
19537;SDS011;9914;51.008;4.300;2022-07-23T07:37:46;11.43;;;9.53;;
19537;SDS011;9914;51.008;4.300;2022-07-23T07:40:12;10.47;;;8.80;;
19537;SDS011;9914;51.008;4.300;2022-07-23T07:42:45;10.30;;;9.00;;
19537;SDS011;9914;51.008;4.300;2022-07-23T07:45:14;10.03;;;8.40;;
19537;SDS011;9914;51.008;4.300;2022-07-23T07:47:40;13.10;;;10.03;;
19537;SDS011;9914;51.008;4.300;2022-07-23T07:50:06;10.53;;;9.13;;
19537;SDS011;9914;51.008;4.300;2022-07-23T07:52:33;10.20;;;9.10;;
19537;SDS011;9914;51.008;4.300;2022-07-23T07:55:02;11.00;;;9.07;;
19537;SDS011;9914;51.008;4.300;2022-07-23T07:57:28;11.53;;;9.57;;
19537;SDS011;9914;51.008;4.300;2022-07-23T07:59:54;14.40;;;8.93;;
19537;SDS011;9914;51.008;4.300;2022-07-23T08:02:20;12.90;;;9.33;;
19537;SDS011;9914;51.008;4.300;2022-07-23T08:04:46;9.10;;;8.23;;
19537;SDS011;9914;51.008;4.300;2022-07-23T08:07:12;9.30;;;7.77;;
19537;SDS011;9914;51.008;4.300;2022-07-23T08:09:38;12.63;;;8.77;;
19537;SDS011;9914;51.008;4.300;2022-07-23T08:12:03;9.93;;;8.80;;
19537;SDS011;9914;51.008;4.300;2022-07-23T08:14:29;11.63;;;9.67;;
19537;SDS011;9914;51.008;4.300;2022-07-23T08:16:55;11.07;;;8.53;;
19537;SDS011;9914;51.008;4.300;2022-07-23T08:19:20;11.60;;;8.00;;
19537;SDS011;9914;51.008;4.300;2022-07-23T08:21:46;9.87;;;7.97;;
19537;SDS011;9914;51.008;4.300;2022-07-23T08:24:12;10.27;;;8.27;;
19537;SDS011;9914;51.008;4.300;2022-07-23T08:26:37;8.33;;;7.47;;
19537;SDS011;9914;51.008;4.300;2022-07-23T08:29:03;11.20;;;7.27;;
19537;SDS011;9914;51.008;4.300;2022-07-23T08:31:29;8.83;;;7.70;;
19537;SDS011;9914;51.008;4.300;2022-07-23T08:33:54;10.23;;;8.47;;
19537;SDS011;9914;51.008;4.300;2022-07-23T08:36:21;8.43;;;7.60;;
19537;SDS011;9914;51.008;4.300;2022-07-23T08:38:47;8.90;;;7.77;;
19537;SDS011;9914;51.008;4.300;2022-07-23T08:41:12;7.63;;;6.27;;
19537;SDS011;9914;51.008;4.300;2022-07-23T08:43:39;9.30;;;6.43;;
19537;SDS011;9914;51.008;4.300;2022-07-23T08:46:05;9.13;;;6.23;;
19537;SDS011;9914;51.008;4.300;2022-07-23T08:48:34;8.37;;;7.57;;
19537;SDS011;9914;51.008;4.300;2022-07-23T08:51:04;9.13;;;6.93;;
19537;SDS011;9914;51.008;4.300;2022-07-23T08:53:31;7.47;;;6.57;;
19537;SDS011;9914;51.008;4.300;2022-07-23T08:56:00;7.00;;;6.37;;
19537;SDS011;9914;51.008;4.300;2022-07-23T08:58:27;9.47;;;5.40;;
19537;SDS011;9914;51.008;4.300;2022-07-23T09:00:53;6.23;;;4.80;;
19537;SDS011;9914;51.008;4.300;2022-07-23T09:03:30;4.30;;;3.40;;
19537;SDS011;9914;51.008;4.300;2022-07-23T09:05:58;4.83;;;3.33;;
19537;SDS011;9914;51.008;4.300;2022-07-23T09:08:36;4.97;;;3.63;;
19537;SDS011;9914;51.008;4.300;2022-07-23T09:11:08;6.77;;;4.90;;
19537;SDS011;9914;51.008;4.300;2022-07-23T09:18:53;5.40;;;4.90;;
19537;SDS011;9914;51.008;4.300;2022-07-23T09:26:50;7.03;;;5.03;;
19537;SDS011;9914;51.008;4.300;2022-07-23T09:29:11;5.43;;;4.93;;
19537;SDS011;9914;51.008;4.300;2022-07-23T09:31:56;5.60;;;4.20;;
19537;SDS011;9914;51.008;4.300;2022-07-23T09:34:23;5.07;;;4.33;;
19537;SDS011;9914;51.008;4.300;2022-07-23T09:36:57;6.67;;;4.30;;
19537;SDS011;9914;51.008;4.300;2022-07-23T09:39:33;7.93;;;4.10;;
19537;SDS011;9914;51.008;4.300;2022-07-23T09:42:12;6.00;;;4.30;;
19537;SDS011;9914;51.008;4.300;2022-07-23T09:44:45;4.43;;;3.83;;
19537;SDS011;9914;51.008;4.300;2022-07-23T09:47:16;5.77;;;4.17;;
19537;SDS011;9914;51.008;4.300;2022-07-23T09:52:33;6.57;;;3.90;;
19537;SDS011;9914;51.008;4.300;2022-07-23T09:55:08;5.23;;;3.83;;
19537;SDS011;9914;51.008;4.300;2022-07-23T09:57:34;5.87;;;4.23;;
19537;SDS011;9914;51.008;4.300;2022-07-23T10:00:06;3.60;;;3.30;;
19537;SDS011;9914;51.008;4.300;2022-07-23T10:02:34;5.70;;;3.83;;
19537;SDS011;9914;51.008;4.300;2022-07-23T10:05:03;6.70;;;3.97;;
19537;SDS011;9914;51.008;4.300;2022-07-23T10:07:31;5.07;;;3.90;;
19537;SDS011;9914;51.008;4.300;2022-07-23T10:09:59;4.20;;;3.80;;
19537;SDS011;9914;51.008;4.300;2022-07-23T10:12:26;5.83;;;4.20;;
19537;SDS011;9914;51.008;4.300;2022-07-23T10:15:02;5.23;;;3.97;;
19537;SDS011;9914;51.008;4.300;2022-07-23T10:17:30;6.80;;;4.93;;
19537;SDS011;9914;51.008;4.300;2022-07-23T10:19:56;4.33;;;3.53;;
19537;SDS011;9914;51.008;4.300;2022-07-23T10:22:26;5.20;;;3.77;;
19537;SDS011;9914;51.008;4.300;2022-07-23T10:27:44;4.33;;;3.90;;
19537;SDS011;9914;51.008;4.300;2022-07-23T10:33:12;4.43;;;4.00;;
19537;SDS011;9914;51.008;4.300;2022-07-23T10:35:47;4.97;;;3.27;;
19537;SDS011;9914;51.008;4.300;2022-07-23T10:41:02;4.73;;;3.60;;
19537;SDS011;9914;51.008;4.300;2022-07-23T10:43:30;4.13;;;3.57;;
19537;SDS011;9914;51.008;4.300;2022-07-23T10:45:56;4.73;;;3.77;;
19537;SDS011;9914;51.008;4.300;2022-07-23T10:49:22;5.27;;;3.37;;
19537;SDS011;9914;51.008;4.300;2022-07-23T10:57:14;4.27;;;3.53;;
19537;SDS011;9914;51.008;4.300;2022-07-23T11:02:34;3.10;;;2.90;;
19537;SDS011;9914;51.008;4.300;2022-07-23T11:05:10;3.60;;;3.27;;
19537;SDS011;9914;51.008;4.300;2022-07-23T11:37:04;3.83;;;2.60;;
19537;SDS011;9914;51.008;4.300;2022-07-23T11:39:32;3.37;;;2.57;;
19537;SDS011;9914;51.008;4.300;2022-07-23T11:41:58;2.87;;;2.43;;
19537;SDS011;9914;51.008;4.300;2022-07-23T11:44:29;4.37;;;2.73;;
19537;SDS011;9914;51.008;4.300;2022-07-23T11:49:22;4.23;;;2.50;;
19537;SDS011;9914;51.008;4.300;2022-07-23T11:52:08;4.37;;;3.10;;
19537;SDS011;9914;51.008;4.300;2022-07-23T11:57:25;2.37;;;2.03;;
19537;SDS011;9914;51.008;4.300;2022-07-23T11:59:54;4.07;;;2.00;;
19537;SDS011;9914;51.008;4.300;2022-07-23T12:02:22;3.80;;;2.20;;
19537;SDS011;9914;51.008;4.300;2022-07-23T12:04:49;4.00;;;2.23;;
19537;SDS011;9914;51.008;4.300;2022-07-23T12:07:31;4.37;;;2.40;;
19537;SDS011;9914;51.008;4.300;2022-07-23T12:10:00;3.07;;;2.77;;
19537;SDS011;9914;51.008;4.300;2022-07-23T12:12:40;2.60;;;2.20;;
19537;SDS011;9914;51.008;4.300;2022-07-23T12:15:13;2.50;;;2.30;;
19537;SDS011;9914;51.008;4.300;2022-07-23T12:17:41;3.17;;;2.60;;
19537;SDS011;9914;51.008;4.300;2022-07-23T12:20:09;3.43;;;2.80;;
19537;SDS011;9914;51.008;4.300;2022-07-23T12:22:40;4.53;;;2.60;;
19537;SDS011;9914;51.008;4.300;2022-07-23T12:27:35;3.63;;;2.30;;
19537;SDS011;9914;51.008;4.300;2022-07-23T12:33:07;4.43;;;2.77;;
19537;SDS011;9914;51.008;4.300;2022-07-23T12:35:41;2.67;;;2.47;;
19537;SDS011;9914;51.008;4.300;2022-07-23T12:38:13;3.20;;;2.60;;
19537;SDS011;9914;51.008;4.300;2022-07-23T12:40:47;3.10;;;2.70;;
19537;SDS011;9914;51.008;4.300;2022-07-23T12:51:20;3.03;;;2.73;;
19537;SDS011;9914;51.008;4.300;2022-07-23T12:53:49;5.47;;;3.00;;
19537;SDS011;9914;51.008;4.300;2022-07-23T12:56:27;3.70;;;2.87;;
19537;SDS011;9914;51.008;4.300;2022-07-23T12:58:55;3.83;;;2.60;;
19537;SDS011;9914;51.008;4.300;2022-07-23T13:01:39;4.50;;;2.83;;
19537;SDS011;9914;51.008;4.300;2022-07-23T13:06:47;3.90;;;2.50;;
19537;SDS011;9914;51.008;4.300;2022-07-23T13:09:18;3.87;;;2.80;;
19537;SDS011;9914;51.008;4.300;2022-07-23T13:11:46;5.13;;;3.07;;
19537;SDS011;9914;51.008;4.300;2022-07-23T13:14:13;4.73;;;3.10;;
19537;SDS011;9914;51.008;4.300;2022-07-23T13:16:39;3.43;;;3.00;;
19537;SDS011;9914;51.008;4.300;2022-07-23T13:19:06;3.80;;;3.10;;
19537;SDS011;9914;51.008;4.300;2022-07-23T13:21:32;3.27;;;2.97;;
19537;SDS011;9914;51.008;4.300;2022-07-23T13:23:59;3.73;;;3.33;;
19537;SDS011;9914;51.008;4.300;2022-07-23T13:26:25;3.90;;;3.33;;
19537;SDS011;9914;51.008;4.300;2022-07-23T13:28:51;3.40;;;2.83;;
19537;SDS011;9914;51.008;4.300;2022-07-23T13:31:17;3.50;;;3.20;;
19537;SDS011;9914;51.008;4.300;2022-07-23T13:33:43;3.80;;;3.30;;
19537;SDS011;9914;51.008;4.300;2022-07-23T13:36:08;5.17;;;3.37;;
19537;SDS011;9914;51.008;4.300;2022-07-23T13:38:34;3.97;;;2.90;;
19537;SDS011;9914;51.008;4.300;2022-07-23T13:41:00;4.37;;;3.20;;
19537;SDS011;9914;51.008;4.300;2022-07-23T13:43:25;4.03;;;3.10;;
19537;SDS011;9914;51.008;4.300;2022-07-23T13:45:51;3.93;;;3.23;;
19537;SDS011;9914;51.008;4.300;2022-07-23T13:48:18;3.13;;;2.83;;
19537;SDS011;9914;51.008;4.300;2022-07-23T13:50:44;8.20;;;3.60;;
19537;SDS011;9914;51.008;4.300;2022-07-23T13:53:29;3.63;;;3.33;;
19537;SDS011;9914;51.008;4.300;2022-07-23T13:55:55;4.30;;;3.50;;
19537;SDS011;9914;51.008;4.300;2022-07-23T13:58:21;4.10;;;3.77;;
19537;SDS011;9914;51.008;4.300;2022-07-23T14:00:48;3.60;;;3.30;;
19537;SDS011;9914;51.008;4.300;2022-07-23T14:03:16;5.43;;;3.67;;
19537;SDS011;9914;51.008;4.300;2022-07-23T14:05:43;3.70;;;3.40;;
19537;SDS011;9914;51.008;4.300;2022-07-23T14:08:09;3.77;;;3.13;;
19537;SDS011;9914;51.008;4.300;2022-07-23T14:10:35;3.60;;;3.30;;
19537;SDS011;9914;51.008;4.300;2022-07-23T14:13:01;14.43;;;12.93;;
19537;SDS011;9914;51.008;4.300;2022-07-23T14:15:28;4.07;;;3.60;;
19537;SDS011;9914;51.008;4.300;2022-07-23T14:17:56;6.60;;;6.00;;
19537;SDS011;9914;51.008;4.300;2022-07-23T14:20:23;5.37;;;4.50;;
19537;SDS011;9914;51.008;4.300;2022-07-23T14:22:49;4.20;;;3.80;;
19537;SDS011;9914;51.008;4.300;2022-07-23T14:25:15;4.60;;;4.20;;
19537;SDS011;9914;51.008;4.300;2022-07-23T14:27:41;4.03;;;3.63;;
19537;SDS011;9914;51.008;4.300;2022-07-23T14:30:08;6.10;;;3.70;;
19537;SDS011;9914;51.008;4.300;2022-07-23T14:32:34;3.63;;;3.33;;
19537;SDS011;9914;51.008;4.300;2022-07-23T14:35:01;12.67;;;10.13;;
19537;SDS011;9914;51.008;4.300;2022-07-23T14:37:27;25.90;;;23.13;;
19537;SDS011;9914;51.008;4.300;2022-07-23T14:39:52;7.87;;;5.07;;
19537;SDS011;9914;51.008;4.300;2022-07-23T14:42:18;6.97;;;5.73;;
19537;SDS011;9914;51.008;4.300;2022-07-23T14:44:44;5.20;;;4.80;;
19537;SDS011;9914;51.008;4.300;2022-07-23T14:47:10;3.83;;;3.33;;
19537;SDS011;9914;51.008;4.300;2022-07-23T14:49:36;5.53;;;3.70;;
19537;SDS011;9914;51.008;4.300;2022-07-23T14:52:02;4.50;;;3.53;;
19537;SDS011;9914;51.008;4.300;2022-07-23T14:54:29;4.33;;;3.60;;
19537;SDS011;9914;51.008;4.300;2022-07-23T14:56:55;6.40;;;5.10;;
19537;SDS011;9914;51.008;4.300;2022-07-23T14:59:23;11.83;;;9.83;;
19537;SDS011;9914;51.008;4.300;2022-07-23T15:01:49;4.63;;;4.20;;
19537;SDS011;9914;51.008;4.300;2022-07-23T15:04:15;4.73;;;3.63;;
19537;SDS011;9914;51.008;4.300;2022-07-23T15:06:41;4.40;;;4.00;;
19537;SDS011;9914;51.008;4.300;2022-07-23T15:09:07;4.30;;;3.90;;
19537;SDS011;9914;51.008;4.300;2022-07-23T15:11:33;4.00;;;3.70;;
19537;SDS011;9914;51.008;4.300;2022-07-23T15:14:05;5.40;;;3.50;;
19537;SDS011;9914;51.008;4.300;2022-07-23T15:16:31;8.23;;;6.23;;
19537;SDS011;9914;51.008;4.300;2022-07-23T15:18:57;4.80;;;4.20;;
19537;SDS011;9914;51.008;4.300;2022-07-23T15:21:23;5.73;;;4.43;;
19537;SDS011;9914;51.008;4.300;2022-07-23T15:23:49;4.10;;;3.30;;
19537;SDS011;9914;51.008;4.300;2022-07-23T15:26:15;5.73;;;3.80;;
19537;SDS011;9914;51.008;4.300;2022-07-23T15:28:42;3.77;;;3.47;;
19537;SDS011;9914;51.008;4.300;2022-07-23T15:31:08;5.97;;;5.47;;
19537;SDS011;9914;51.008;4.300;2022-07-23T15:33:33;7.03;;;5.20;;
19537;SDS011;9914;51.008;4.300;2022-07-23T15:36:00;5.37;;;3.97;;
19537;SDS011;9914;51.008;4.300;2022-07-23T15:38:26;5.83;;;4.80;;
19537;SDS011;9914;51.008;4.300;2022-07-23T15:40:55;3.93;;;3.63;;
19537;SDS011;9914;51.008;4.300;2022-07-23T15:43:22;4.43;;;4.03;;
19537;SDS011;9914;51.008;4.300;2022-07-23T15:45:49;8.37;;;4.80;;
19537;SDS011;9914;51.008;4.300;2022-07-23T15:48:15;6.00;;;5.37;;
19537;SDS011;9914;51.008;4.300;2022-07-23T15:50:41;7.07;;;4.30;;
19537;SDS011;9914;51.008;4.300;2022-07-23T15:53:06;4.60;;;4.20;;
19537;SDS011;9914;51.008;4.300;2022-07-23T15:55:32;4.50;;;4.10;;
19537;SDS011;9914;51.008;4.300;2022-07-23T15:57:58;4.87;;;4.37;;
19537;SDS011;9914;51.008;4.300;2022-07-23T16:00:23;5.27;;;4.57;;
19537;SDS011;9914;51.008;4.300;2022-07-23T16:02:49;4.50;;;4.20;;
19537;SDS011;9914;51.008;4.300;2022-07-23T16:05:15;4.50;;;3.97;;
19537;SDS011;9914;51.008;4.300;2022-07-23T16:07:40;5.32;;;4.00;;